createdAt,value
2022-08-03T00:02:27.253Z,0.80
2022-08-03T00:04:56.738Z,0.50
2022-08-03T00:07:26.211Z,0.97
2022-08-03T00:09:55.709Z,0.80
2022-08-03T00:12:25.187Z,0.60
2022-08-03T00:14:54.694Z,0.80
2022-08-03T00:17:24.164Z,0.70
2022-08-03T00:19:53.665Z,0.73
2022-08-03T00:22:23.135Z,0.80
2022-08-03T00:24:53.509Z,0.90
2022-08-03T00:27:22.981Z,0.90
2022-08-03T00:29:59.391Z,1.10
2022-08-03T00:32:24.701Z,0.80
2022-08-03T00:34:57.826Z,0.90
2022-08-03T00:37:41.696Z,0.90
2022-08-03T00:39:56.887Z,0.97
2022-08-03T00:42:28.541Z,1.10
2022-08-03T00:44:58.281Z,1.00
2022-08-03T00:47:27.764Z,1.13
2022-08-03T00:49:57.273Z,1.07
2022-08-03T00:52:26.766Z,1.20
2022-08-03T00:54:56.254Z,1.20
2022-08-03T00:57:25.739Z,1.00
2022-08-03T00:59:55.976Z,0.90
2022-08-03T01:02:25.452Z,0.90
2022-08-03T01:04:55.340Z,0.77
2022-08-03T01:07:35.233Z,0.93
2022-08-03T01:10:20.959Z,1.03
2022-08-03T01:14:01.764Z,1.10
2022-08-03T01:16:20.612Z,0.80
2022-08-03T01:19:05.285Z,0.90
2022-08-03T01:21:41.936Z,1.00
2022-08-03T01:24:35.809Z,0.77
2022-08-03T01:27:22.048Z,1.00
2022-08-03T01:30:09.950Z,0.80
2022-08-03T01:33:02.180Z,0.70
2022-08-03T01:36:04.282Z,0.83
2022-08-03T01:38:42.100Z,1.10
2022-08-03T01:41:22.010Z,0.77
2022-08-03T01:44:28.126Z,0.90
2022-08-03T01:46:27.148Z,0.90
2022-08-03T01:48:58.801Z,0.80
2022-08-03T01:52:03.149Z,0.80
2022-08-03T01:54:05.350Z,0.70
2022-08-03T01:56:37.649Z,0.90
2022-08-03T01:59:10.672Z,0.90
2022-08-03T02:02:15.964Z,0.80
2022-08-03T02:04:16.519Z,1.00
2022-08-03T02:07:00.623Z,1.00
2022-08-03T02:09:24.415Z,1.00
2022-08-03T02:11:57.632Z,0.80
2022-08-03T02:14:29.628Z,0.70
2022-08-03T02:17:00.323Z,1.10
2022-08-03T02:19:35.632Z,0.90
2022-08-03T02:22:05.747Z,1.10
2022-08-03T02:24:35.501Z,1.00
2022-08-03T02:27:10.100Z,1.00
2022-08-03T02:29:41.945Z,0.70
2022-08-03T02:32:16.310Z,1.00
2022-08-03T02:34:50.620Z,0.80
2022-08-03T02:37:24.574Z,0.70
2022-08-03T02:39:57.513Z,0.90
2022-08-03T02:42:30.472Z,1.00
2022-08-03T02:45:04.751Z,0.80
2022-08-03T02:47:53.198Z,0.93
2022-08-03T02:50:12.182Z,1.00
2022-08-03T02:52:43.697Z,1.10
2022-08-03T02:55:15.795Z,0.70
2022-08-03T02:57:48.379Z,0.97
2022-08-03T03:00:27.290Z,0.97
2022-08-03T03:02:51.691Z,1.10
2022-08-03T03:05:55.201Z,1.10
2022-08-03T03:07:54.125Z,1.00
2022-08-03T03:10:26.693Z,0.93
2022-08-03T03:12:59.057Z,1.00
2022-08-03T03:15:31.628Z,0.80
2022-08-03T03:18:03.389Z,0.60
2022-08-03T03:20:35.740Z,1.02
2022-08-03T03:23:07.036Z,1.00
2022-08-03T03:25:37.637Z,0.90
2022-08-03T03:28:07.733Z,1.00
2022-08-03T03:30:37.532Z,0.77
2022-08-03T03:33:07.444Z,1.10
2022-08-03T03:35:39.269Z,0.80
2022-08-03T03:38:09.212Z,1.10
2022-08-03T03:40:42.678Z,0.80
2022-08-03T03:43:13.876Z,0.80
2022-08-03T03:45:44.113Z,0.83
2022-08-03T03:48:13.745Z,1.00
2022-08-03T03:50:44.397Z,0.90
2022-08-03T03:53:15.955Z,1.00
2022-08-03T03:55:59.348Z,0.90
2022-08-03T03:58:17.425Z,0.80
2022-08-03T04:00:47.040Z,0.63
2022-08-03T04:03:16.522Z,1.00
2022-08-03T04:06:04.158Z,0.90
2022-08-03T04:08:51.183Z,0.80
2022-08-03T04:11:30.128Z,1.20
2022-08-03T04:14:19.650Z,1.20
2022-08-03T04:17:08.726Z,0.80
2022-08-03T04:19:45.880Z,0.93
2022-08-03T04:22:22.748Z,0.90
2022-08-03T04:24:59.658Z,0.63
2022-08-03T04:27:34.070Z,0.70
2022-08-03T04:30:06.665Z,0.90
2022-08-03T04:32:39.958Z,0.63
2022-08-03T04:35:10.119Z,0.93
2022-08-03T04:37:50.127Z,1.37
2022-08-03T04:40:41.227Z,0.87
2022-08-03T04:43:14.165Z,0.90
2022-08-03T04:45:47.031Z,0.90
2022-08-03T04:48:17.594Z,1.27
2022-08-03T04:50:48.743Z,0.70
2022-08-03T04:53:19.535Z,0.90
2022-08-03T04:55:49.315Z,0.80
2022-08-03T04:58:18.865Z,0.90
2022-08-03T05:00:50.057Z,0.87
2022-08-03T05:03:23.757Z,1.10
2022-08-03T05:05:51.063Z,1.10
2022-08-03T05:08:28.156Z,1.00
2022-08-03T05:10:51.873Z,0.70
2022-08-03T05:13:21.415Z,0.83
2022-08-03T05:15:50.966Z,0.70
2022-08-03T05:18:20.513Z,0.67
2022-08-03T05:20:50.068Z,1.07
2022-08-03T05:23:20.092Z,0.80
2022-08-03T05:25:50.281Z,1.07
2022-08-03T05:28:19.892Z,0.97
2022-08-03T05:30:49.713Z,1.07
2022-08-03T05:33:19.198Z,1.27
2022-08-03T05:35:57.546Z,1.10
2022-08-03T05:38:23.889Z,1.10
2022-08-03T05:40:57.247Z,1.37
2022-08-03T05:43:22.713Z,1.30
2022-08-03T05:46:12.539Z,1.50
2022-08-03T05:48:23.463Z,1.40
2022-08-03T05:50:53.009Z,1.70
2022-08-03T05:53:22.648Z,1.80
2022-08-03T05:55:56.154Z,1.63
2022-08-03T05:58:23.422Z,1.70
2022-08-03T06:00:54.837Z,1.67
2022-08-03T06:03:24.367Z,1.73
2022-08-03T06:06:00.403Z,1.40
2022-08-03T06:08:28.226Z,1.47
2022-08-03T06:10:57.790Z,1.70
2022-08-03T06:13:27.402Z,1.60
2022-08-03T06:15:56.954Z,1.50
2022-08-03T06:18:26.619Z,1.40
2022-08-03T06:20:56.811Z,1.30
2022-08-03T06:23:52.662Z,0.97
2022-08-03T06:25:57.618Z,1.13
2022-08-03T06:28:51.768Z,1.10
2022-08-03T06:30:58.499Z,1.00
2022-08-03T06:34:30.166Z,0.90
2022-08-03T06:35:59.441Z,1.20
2022-08-03T06:38:29.230Z,0.83
2022-08-03T06:40:58.841Z,1.10
2022-08-03T06:43:28.370Z,1.13
2022-08-03T06:45:59.655Z,0.80
2022-08-03T06:48:29.184Z,0.70
2022-08-03T06:50:59.192Z,0.90
2022-08-03T06:53:28.713Z,0.80
2022-08-03T06:55:58.550Z,0.93
2022-08-03T06:58:28.298Z,0.90
2022-08-03T07:00:58.026Z,1.00
2022-08-03T07:03:27.802Z,0.90
2022-08-03T07:05:57.356Z,1.00
2022-08-03T07:08:33.853Z,0.67
2022-08-03T07:10:58.235Z,1.20
2022-08-03T07:13:27.787Z,0.90
2022-08-03T07:15:57.894Z,0.93
2022-08-03T07:18:29.818Z,0.80
2022-08-03T07:20:59.320Z,0.80
2022-08-03T07:23:28.872Z,0.80
2022-08-03T07:25:58.512Z,0.83
2022-08-03T07:28:28.314Z,0.70
2022-08-03T07:30:57.868Z,0.73
2022-08-03T07:33:27.406Z,0.90
2022-08-03T07:35:57.129Z,0.80
2022-08-03T07:38:26.668Z,0.90
2022-08-03T07:40:56.395Z,0.80
2022-08-03T07:43:25.933Z,0.95
2022-08-03T07:45:55.562Z,0.80
2022-08-03T07:48:25.171Z,0.80
2022-08-03T07:50:54.738Z,0.88
2022-08-03T07:53:24.279Z,0.90
2022-08-03T07:55:53.857Z,0.90
2022-08-03T07:58:24.548Z,0.80
2022-08-03T08:00:54.138Z,0.90
2022-08-03T08:03:23.738Z,1.00
2022-08-03T08:05:53.717Z,0.72
2022-08-03T08:08:23.260Z,1.10
2022-08-03T08:10:56.902Z,0.80
2022-08-03T08:13:24.556Z,0.72
2022-08-03T08:15:54.133Z,1.00
2022-08-03T08:18:24.221Z,0.65
2022-08-03T08:20:53.933Z,1.15
2022-08-03T08:23:41.936Z,0.80
2022-08-03T08:25:56.227Z,1.07
2022-08-03T08:28:32.682Z,0.83
2022-08-03T08:30:57.373Z,0.90
2022-08-03T08:33:37.434Z,0.60
2022-08-03T08:35:58.062Z,0.62
2022-08-03T08:38:28.355Z,0.53
2022-08-03T08:40:58.505Z,0.80
2022-08-03T08:43:28.934Z,0.78
2022-08-03T08:46:00.527Z,0.80
2022-08-03T08:48:31.985Z,0.78
2022-08-03T08:51:03.284Z,0.70
2022-08-03T08:53:36.739Z,1.00
2022-08-03T08:56:08.473Z,0.80
2022-08-03T08:58:41.628Z,0.75
2022-08-03T09:01:11.431Z,0.75
2022-08-03T09:03:41.306Z,0.88
2022-08-03T09:06:10.852Z,0.70
2022-08-03T09:08:40.396Z,0.90
2022-08-03T09:11:12.000Z,0.95
2022-08-03T09:13:41.814Z,0.95
2022-08-03T09:16:21.046Z,1.00
2022-08-03T09:18:55.706Z,0.90
2022-08-03T09:21:33.285Z,0.90
2022-08-03T09:24:13.159Z,0.95
2022-08-03T09:26:39.674Z,1.15
2022-08-03T09:29:15.621Z,1.07
2022-08-03T09:31:47.195Z,1.12
2022-08-03T09:34:19.638Z,1.02
2022-08-03T09:36:53.653Z,1.20
2022-08-03T09:39:41.295Z,0.80
2022-08-03T09:42:23.737Z,1.10
2022-08-03T09:44:54.891Z,1.00
2022-08-03T09:47:37.578Z,0.90
2022-08-03T09:50:10.787Z,0.75
2022-08-03T09:52:52.396Z,0.98
2022-08-03T09:56:32.901Z,0.95
2022-08-03T09:57:47.422Z,0.78
2022-08-03T10:00:18.876Z,0.83
2022-08-03T10:02:50.072Z,0.60
2022-08-03T10:05:24.224Z,0.93
2022-08-03T10:07:53.708Z,1.00
2022-08-03T10:10:30.029Z,1.10
2022-08-03T10:12:55.159Z,1.10
2022-08-03T10:16:23.118Z,0.85
2022-08-03T10:17:56.426Z,0.95
2022-08-03T10:20:26.796Z,1.10
2022-08-03T10:22:57.237Z,0.90
2022-08-03T10:25:33.033Z,0.80
2022-08-03T10:28:04.869Z,0.95
2022-08-03T10:30:36.137Z,0.90
2022-08-03T10:33:51.745Z,0.85
2022-08-03T10:35:48.723Z,0.70
2022-08-03T10:38:28.818Z,0.70
2022-08-03T10:41:00.293Z,1.10
2022-08-03T10:46:00.338Z,1.00
2022-08-03T10:48:31.113Z,1.00
2022-08-03T10:51:00.993Z,0.80
2022-08-03T10:53:54.490Z,0.85
2022-08-03T10:56:54.839Z,1.10
2022-08-03T10:59:51.425Z,1.02
2022-08-03T11:02:20.992Z,1.00
2022-08-03T11:04:55.080Z,1.10
2022-08-03T11:07:26.282Z,0.78
2022-08-03T11:09:57.591Z,0.72
2022-08-03T11:12:32.249Z,0.80
2022-08-03T11:15:08.701Z,0.75
2022-08-03T11:17:46.104Z,0.90
2022-08-03T11:20:10.597Z,0.70
2022-08-03T11:22:53.510Z,0.90
2022-08-03T11:25:53.842Z,0.80
2022-08-03T11:28:01.345Z,0.78
2022-08-03T11:30:30.925Z,1.07
2022-08-03T11:33:01.681Z,0.90
2022-08-03T11:35:36.625Z,0.85
2022-08-03T11:38:08.476Z,0.80
2022-08-03T11:40:48.087Z,0.72
2022-08-03T11:43:38.936Z,0.57
2022-08-03T11:46:28.650Z,1.00
2022-08-03T11:48:52.124Z,1.10
2022-08-03T11:51:32.479Z,1.05
2022-08-03T11:54:05.841Z,0.93
2022-08-03T11:56:50.290Z,1.10
2022-08-03T11:59:22.165Z,1.00
2022-08-03T12:01:51.482Z,1.00
2022-08-03T12:04:21.187Z,0.98
2022-08-03T12:07:03.786Z,1.02
2022-08-03T12:09:34.991Z,1.02
2022-08-03T12:12:05.641Z,0.90
2022-08-03T12:14:48.748Z,0.88
2022-08-03T12:17:06.921Z,1.10
2022-08-03T12:19:45.364Z,1.00
2022-08-03T12:22:16.824Z,0.80
2022-08-03T12:24:47.905Z,0.98
2022-08-03T12:27:29.814Z,0.80
2022-08-03T12:30:01.881Z,0.90
2022-08-03T12:32:32.770Z,0.82
2022-08-03T12:35:04.028Z,0.90
2022-08-03T12:37:34.121Z,1.10
2022-08-03T12:40:10.420Z,1.10
2022-08-03T12:42:41.000Z,0.90
2022-08-03T12:45:34.672Z,1.27
2022-08-03T12:48:06.401Z,1.15
2022-08-03T12:50:38.351Z,1.00
2022-08-03T12:53:10.968Z,0.90
2022-08-03T12:56:04.426Z,1.00
2022-08-03T12:58:18.925Z,0.90
2022-08-03T13:00:58.306Z,0.80
2022-08-03T13:03:39.428Z,0.60
2022-08-03T13:05:59.794Z,0.80
2022-08-03T13:08:29.358Z,0.80
2022-08-03T13:10:58.905Z,1.15
2022-08-03T13:13:41.533Z,0.90
2022-08-03T13:16:13.586Z,0.90
2022-08-03T13:18:42.339Z,0.88
2022-08-03T13:21:11.951Z,0.98
2022-08-03T13:23:41.524Z,0.80
2022-08-03T13:26:12.762Z,0.80
2022-08-03T13:28:42.289Z,0.72
2022-08-03T13:31:12.171Z,0.82
2022-08-03T13:33:41.681Z,0.70
2022-08-03T13:36:11.216Z,0.72
2022-08-03T13:38:40.876Z,0.90
2022-08-03T13:41:10.893Z,1.00
2022-08-03T13:43:40.433Z,1.00
2022-08-03T13:46:10.000Z,0.70
2022-08-03T13:48:39.544Z,0.78
2022-08-03T13:51:11.757Z,1.07
2022-08-03T13:53:40.352Z,1.30
2022-08-03T13:56:09.908Z,0.90
2022-08-03T13:58:39.450Z,0.82
2022-08-03T14:01:09.017Z,1.00
2022-08-03T14:03:38.864Z,0.90
2022-08-03T14:06:08.626Z,0.60
2022-08-03T14:08:38.130Z,0.90
2022-08-03T14:11:07.599Z,0.60
2022-08-03T14:13:37.163Z,0.75
2022-08-03T14:16:06.946Z,0.80
2022-08-03T14:18:40.146Z,0.72
2022-08-03T14:21:09.372Z,0.90
2022-08-03T14:23:39.261Z,0.70
2022-08-03T14:26:10.373Z,0.80
2022-08-03T14:28:39.871Z,1.00
2022-08-03T14:32:09.006Z,0.90
2022-08-03T14:33:41.190Z,0.80
2022-08-03T14:36:10.823Z,0.78
2022-08-03T14:38:40.329Z,0.85
2022-08-03T14:41:12.112Z,0.60
2022-08-03T14:43:41.098Z,1.00
2022-08-03T14:46:12.445Z,0.82
2022-08-03T14:50:32.674Z,0.90
2022-08-03T14:51:13.478Z,0.70
2022-08-03T14:53:43.028Z,0.70
2022-08-03T14:56:12.520Z,0.70
2022-08-03T14:58:41.995Z,1.00
2022-08-03T15:02:05.134Z,0.60
2022-08-03T15:03:43.966Z,0.80
2022-08-03T15:06:13.493Z,0.80
2022-08-03T15:08:51.383Z,0.75
2022-08-03T15:11:14.163Z,0.70
2022-08-03T15:13:43.628Z,0.70
2022-08-03T15:16:13.123Z,0.75
2022-08-03T15:18:42.616Z,0.70
2022-08-03T15:21:45.879Z,0.70
2022-08-03T15:23:43.311Z,0.68
2022-08-03T15:26:31.753Z,0.80
2022-08-03T15:28:43.985Z,0.60
2022-08-03T15:31:13.476Z,0.70
2022-08-03T15:33:44.670Z,0.70
2022-08-03T15:36:14.163Z,0.90
2022-08-03T15:38:43.639Z,0.90
2022-08-03T15:41:16.796Z,0.70
2022-08-03T15:43:47.912Z,0.60
2022-08-03T15:46:29.265Z,0.70
2022-08-03T15:48:48.707Z,0.55
2022-08-03T15:51:18.367Z,0.82
2022-08-03T15:53:47.841Z,0.80
2022-08-03T15:56:18.850Z,0.75
2022-08-03T15:59:10.431Z,0.60
2022-08-03T16:01:21.334Z,0.80
2022-08-03T16:03:50.862Z,0.60
2022-08-03T16:06:29.611Z,0.70
2022-08-03T16:08:51.842Z,1.02
2022-08-03T16:11:21.333Z,0.95
2022-08-03T16:14:13.325Z,0.70
2022-08-03T16:16:22.032Z,0.70
2022-08-03T16:18:51.575Z,0.62
2022-08-03T16:21:21.805Z,0.80
2022-08-03T16:23:52.348Z,0.80
2022-08-03T16:26:21.901Z,0.72
2022-08-03T16:28:53.096Z,0.80
2022-08-03T16:31:23.431Z,0.78
2022-08-03T16:33:52.912Z,0.80
2022-08-03T16:36:22.602Z,0.72
2022-08-03T16:38:52.201Z,0.90
2022-08-03T16:41:21.743Z,0.90
2022-08-03T16:44:10.616Z,0.72
2022-08-03T16:46:41.802Z,0.70
2022-08-03T16:49:12.150Z,0.60
2022-08-03T16:51:50.462Z,0.70
2022-08-03T16:54:15.797Z,0.90
2022-08-03T16:56:47.067Z,0.70
2022-08-03T16:59:18.292Z,0.80
2022-08-03T17:01:49.485Z,0.68
2022-08-03T17:04:19.089Z,0.50
2022-08-03T17:06:48.824Z,0.60
2022-08-03T17:09:20.563Z,0.60
2022-08-03T17:11:52.367Z,0.50
2022-08-03T17:14:23.826Z,0.50
2022-08-03T17:17:01.662Z,0.60
2022-08-03T17:19:35.101Z,0.75
2022-08-03T17:22:13.126Z,0.60
2022-08-03T17:24:53.620Z,0.70
2022-08-03T17:28:49.758Z,0.60
2022-08-03T17:30:08.989Z,0.60
2022-08-03T17:32:57.737Z,0.50
2022-08-03T17:35:15.098Z,0.50
2022-08-03T17:37:57.531Z,0.60
2022-08-03T17:40:17.600Z,0.53
2022-08-03T17:42:50.756Z,0.50
2022-08-03T17:45:21.456Z,0.60
2022-08-03T17:47:57.035Z,0.63
2022-08-03T17:50:23.929Z,0.60
2022-08-03T17:52:58.684Z,0.60
2022-08-03T17:55:57.139Z,0.60
2022-08-03T17:58:08.235Z,0.50
2022-08-03T18:01:00.819Z,0.50
2022-08-03T18:03:58.508Z,0.50
2022-08-03T18:06:27.948Z,0.60
2022-08-03T18:08:56.471Z,0.50
2022-08-03T18:11:37.219Z,0.53
2022-08-03T18:14:16.251Z,0.50
2022-08-03T18:16:46.490Z,0.70
2022-08-03T18:19:17.211Z,0.70
2022-08-03T18:22:02.921Z,0.60
2022-08-03T18:24:25.840Z,0.80
2022-08-03T18:26:57.501Z,0.60
2022-08-03T18:29:29.925Z,0.60
2022-08-03T18:32:06.080Z,0.50
2022-08-03T18:34:36.686Z,0.60
2022-08-03T18:37:08.545Z,0.63
2022-08-03T18:39:50.235Z,0.53
2022-08-03T18:42:19.539Z,0.50
2022-08-03T18:44:53.820Z,0.80
2022-08-03T18:47:26.027Z,0.70
2022-08-03T18:50:19.018Z,0.70
2022-08-03T18:52:52.958Z,0.60
2022-08-03T18:55:36.348Z,0.73
2022-08-03T18:58:17.656Z,1.20
2022-08-03T19:01:03.594Z,1.07
2022-08-03T19:03:43.174Z,0.87
2022-08-03T19:06:14.609Z,0.80
2022-08-03T19:08:52.902Z,0.70
2022-08-03T19:12:11.274Z,0.90
2022-08-03T19:14:12.561Z,0.70
2022-08-03T19:16:48.345Z,0.80
2022-08-03T19:19:21.342Z,0.80
2022-08-03T19:21:54.099Z,0.70
2022-08-03T19:24:27.141Z,0.77
2022-08-03T19:26:57.393Z,0.70
2022-08-03T19:29:57.807Z,0.87
2022-08-03T19:32:02.675Z,1.00
2022-08-03T19:34:33.149Z,0.80
2022-08-03T19:37:03.506Z,0.73
2022-08-03T19:39:33.607Z,0.87
2022-08-03T19:42:20.101Z,0.70
2022-08-03T19:44:47.417Z,1.00
2022-08-03T19:47:38.421Z,1.00
2022-08-03T19:50:14.260Z,0.70
2022-08-03T19:52:46.057Z,1.00
2022-08-03T19:55:18.573Z,0.90
2022-08-03T19:57:51.404Z,0.90
2022-08-03T20:00:26.515Z,0.87
2022-08-03T20:02:52.398Z,1.13
2022-08-03T20:05:22.162Z,0.73
2022-08-03T20:07:53.358Z,1.13
2022-08-03T20:10:23.334Z,0.93
2022-08-03T20:12:54.920Z,0.77
2022-08-03T20:15:31.058Z,1.10
2022-08-03T20:17:58.788Z,1.10
2022-08-03T20:20:34.768Z,0.97
2022-08-03T20:23:14.249Z,0.80
2022-08-03T20:25:58.399Z,0.90
2022-08-03T20:28:35.807Z,1.30
2022-08-03T20:31:07.149Z,1.00
2022-08-03T20:33:46.712Z,0.90
2022-08-03T20:36:08.609Z,0.83
2022-08-03T20:38:43.788Z,1.00
2022-08-03T20:41:11.209Z,0.97
2022-08-03T20:43:43.275Z,1.07
2022-08-03T20:46:30.833Z,0.80
2022-08-03T20:48:48.630Z,0.97
2022-08-03T20:51:49.242Z,1.10
2022-08-03T20:54:00.449Z,0.90
2022-08-03T20:56:25.244Z,1.03
2022-08-03T20:58:58.634Z,0.97
2022-08-03T21:01:36.491Z,0.97
2022-08-03T21:04:04.595Z,1.00
2022-08-03T21:06:53.481Z,0.80
2022-08-03T21:09:22.644Z,0.83
2022-08-03T21:11:53.944Z,0.87
2022-08-03T21:14:30.889Z,1.00
2022-08-03T21:17:14.043Z,1.20
2022-08-03T21:19:39.363Z,1.00
2022-08-03T21:22:14.352Z,0.90
2022-08-03T21:24:46.235Z,1.07
2022-08-03T21:27:16.260Z,1.13
2022-08-03T21:29:53.073Z,1.00
2022-08-03T21:32:32.666Z,1.03
2022-08-03T21:34:52.250Z,1.00
2022-08-03T21:37:22.251Z,1.17
2022-08-03T21:39:53.863Z,1.30
2022-08-03T21:42:24.965Z,1.22
2022-08-03T21:44:55.196Z,1.27
2022-08-03T21:47:25.691Z,0.90
2022-08-03T21:50:08.922Z,1.20
2022-08-03T21:52:33.719Z,1.10
2022-08-03T21:55:06.842Z,0.83
2022-08-03T21:57:38.696Z,1.40
2022-08-03T22:00:18.077Z,1.27
2022-08-03T22:02:55.293Z,1.03
2022-08-03T22:05:42.523Z,1.00
2022-08-03T22:08:00.504Z,1.10
2022-08-03T22:10:30.113Z,1.17
2022-08-03T22:12:59.604Z,1.20
2022-08-03T22:15:29.173Z,1.30
2022-08-03T22:18:01.395Z,1.13
2022-08-03T22:20:31.290Z,1.40
2022-08-03T22:23:05.356Z,1.40
2022-08-03T22:25:41.124Z,1.50
2022-08-03T22:28:15.001Z,1.00
2022-08-03T22:30:45.127Z,0.80
2022-08-03T22:33:16.638Z,0.90
2022-08-03T22:35:50.684Z,1.30
2022-08-03T22:38:20.622Z,1.10
2022-08-03T22:40:52.025Z,1.10
2022-08-03T22:43:26.610Z,0.80
2022-08-03T22:46:09.465Z,1.10
2022-08-03T22:48:35.304Z,1.30
2022-08-03T22:51:07.621Z,1.20
2022-08-03T22:53:37.469Z,1.27
2022-08-03T22:56:07.665Z,0.90
2022-08-03T22:58:37.168Z,1.10
2022-08-03T23:01:10.213Z,1.23
2022-08-03T23:03:59.668Z,1.30
2022-08-03T23:06:22.495Z,1.30
2022-08-03T23:08:52.585Z,1.40
2022-08-03T23:11:26.537Z,1.20
2022-08-03T23:13:59.891Z,1.20
2022-08-03T23:16:30.363Z,1.50
2022-08-03T23:19:16.776Z,1.40
2022-08-03T23:22:00.243Z,1.20
2022-08-03T23:24:10.665Z,1.20
2022-08-03T23:26:39.815Z,1.20
2022-08-03T23:29:09.536Z,1.17
2022-08-03T23:31:43.101Z,1.30
2022-08-03T23:34:32.873Z,1.60
2022-08-03T23:37:04.259Z,1.30
2022-08-03T23:39:35.523Z,1.20
2022-08-03T23:42:07.211Z,1.10
2022-08-03T23:44:39.616Z,1.33
2022-08-03T23:47:09.077Z,1.27
2022-08-03T23:49:38.631Z,1.57
2022-08-03T23:52:36.944Z,1.10
2022-08-03T23:55:13.886Z,1.30
2022-08-03T23:58:05.314Z,1.50
